createdAt,value
2023-09-09T00:00:36.199Z,45.33
2023-09-09T00:02:08.131Z,45.16
2023-09-09T00:03:39.923Z,45.39
2023-09-09T00:05:12.122Z,45.51
2023-09-09T00:06:44.008Z,45.88
2023-09-09T00:08:16.929Z,45.84
2023-09-09T00:09:48.829Z,45.90
2023-09-09T00:11:20.828Z,46.05
2023-09-09T00:12:52.719Z,46.07
2023-09-09T00:14:24.644Z,46.51
2023-09-09T00:15:56.636Z,46.26
2023-09-09T00:17:28.824Z,46.33
2023-09-09T00:19:00.595Z,46.52
2023-09-09T00:20:36.643Z,46.38
2023-09-09T00:22:08.252Z,46.32
2023-09-09T00:23:39.811Z,46.38
2023-09-09T00:25:11.804Z,46.48
2023-09-09T00:26:43.443Z,46.83
2023-09-09T00:28:15.819Z,46.55
2023-09-09T00:29:47.404Z,46.71
2023-09-09T00:31:19.127Z,46.70
2023-09-09T00:32:51.439Z,46.54
2023-09-09T00:34:23.213Z,46.54
2023-09-09T00:35:54.863Z,46.50
2023-09-09T00:37:27.488Z,46.42
2023-09-09T00:39:00.314Z,46.46
2023-09-09T00:40:31.991Z,46.49
2023-09-09T00:42:03.724Z,46.64
2023-09-09T00:43:39.475Z,46.61
2023-09-09T00:45:11.845Z,46.68
2023-09-09T00:46:43.955Z,46.68
2023-09-09T00:48:16.315Z,46.87
2023-09-09T00:49:48.045Z,46.60
2023-09-09T00:51:19.832Z,46.59
2023-09-09T00:52:51.438Z,46.72
2023-09-09T00:54:23.041Z,46.37
2023-09-09T00:55:54.633Z,46.22
2023-09-09T00:57:27.521Z,46.33
2023-09-09T00:58:59.157Z,46.35
2023-09-09T01:00:30.862Z,46.09
2023-09-09T01:02:03.979Z,46.17
2023-09-09T01:03:36.955Z,46.11
2023-09-09T01:05:09.474Z,46.10
2023-09-09T01:06:41.172Z,46.09
2023-09-09T01:08:13.709Z,46.15
2023-09-09T01:09:45.374Z,46.17
2023-09-09T01:11:17.342Z,46.09
2023-09-09T01:12:48.902Z,46.18
2023-09-09T01:14:20.775Z,46.29
2023-09-09T01:15:53.354Z,46.19
2023-09-09T01:17:25.669Z,46.50
2023-09-09T01:18:57.542Z,46.44
2023-09-09T01:20:29.926Z,46.26
2023-09-09T01:22:04.789Z,45.89
2023-09-09T01:23:37.096Z,46.21
2023-09-09T01:25:09.593Z,46.18
2023-09-09T01:26:41.329Z,46.40
2023-09-09T01:28:13.074Z,46.32
2023-09-09T01:29:45.013Z,46.37
2023-09-09T01:31:17.034Z,46.40
2023-09-09T01:32:49.958Z,46.28
2023-09-09T01:34:21.606Z,46.33
2023-09-09T01:35:53.599Z,46.20
2023-09-09T01:37:25.689Z,46.28
2023-09-09T01:38:57.868Z,46.39
2023-09-09T01:40:29.597Z,46.57
2023-09-09T01:42:01.304Z,46.29
2023-09-09T01:43:32.897Z,46.47
2023-09-09T01:45:04.964Z,46.17
2023-09-09T01:46:37.283Z,46.63
2023-09-09T01:48:09.095Z,46.30
2023-09-09T01:49:42.229Z,46.51
2023-09-09T01:51:13.898Z,46.24
2023-09-09T01:52:45.870Z,46.58
2023-09-09T01:54:17.436Z,46.65
2023-09-09T01:55:49.232Z,46.91
2023-09-09T01:57:23.220Z,46.83
2023-09-09T01:58:55.029Z,47.05
2023-09-09T02:00:28.991Z,46.79
2023-09-09T02:02:00.713Z,47.03
2023-09-09T02:03:32.868Z,46.77
2023-09-09T02:05:04.747Z,46.74
2023-09-09T02:06:36.436Z,46.59
2023-09-09T02:08:08.411Z,46.71
2023-09-09T02:09:40.063Z,46.52
2023-09-09T02:11:11.782Z,46.58
2023-09-09T02:12:43.502Z,46.77
2023-09-09T02:14:15.261Z,47.05
2023-09-09T02:15:46.897Z,47.16
2023-09-09T02:17:18.892Z,47.27
2023-09-09T02:18:50.498Z,47.29
2023-09-09T02:20:22.213Z,47.59
2023-09-09T02:21:53.953Z,47.61
2023-09-09T02:23:25.685Z,47.71
2023-09-09T02:24:57.322Z,47.67
2023-09-09T02:26:29.170Z,47.72
2023-09-09T02:28:00.699Z,47.72
2023-09-09T02:29:32.511Z,47.89
2023-09-09T02:31:04.566Z,47.88
2023-09-09T02:32:36.297Z,47.96
2023-09-09T02:34:08.401Z,47.77
2023-09-09T02:35:46.553Z,47.84
2023-09-09T02:37:19.657Z,47.72
2023-09-09T02:38:51.570Z,47.85
2023-09-09T02:40:23.497Z,47.85
2023-09-09T02:41:55.029Z,47.91
2023-09-09T02:43:27.298Z,48.03
2023-09-09T02:44:58.907Z,48.19
2023-09-09T02:46:30.574Z,48.27
2023-09-09T02:48:02.487Z,48.30
2023-09-09T02:49:34.087Z,48.26
2023-09-09T02:51:06.157Z,48.40
2023-09-09T02:52:37.789Z,48.48
2023-09-09T02:54:09.678Z,48.61
2023-09-09T02:55:41.416Z,48.73
2023-09-09T02:57:13.091Z,48.73
2023-09-09T02:58:44.656Z,48.57
2023-09-09T03:00:16.864Z,48.65
2023-09-09T03:01:48.453Z,48.73
2023-09-09T03:03:21.948Z,48.84
2023-09-09T03:04:53.748Z,48.88
2023-09-09T03:06:25.430Z,48.69
2023-09-09T03:07:58.821Z,48.76
2023-09-09T03:09:31.397Z,48.95
2023-09-09T03:11:03.629Z,49.15
2023-09-09T03:12:35.391Z,49.13
2023-09-09T03:14:07.404Z,49.20
2023-09-09T03:15:39.098Z,49.11
2023-09-09T03:17:10.914Z,49.09
2023-09-09T03:18:42.735Z,49.21
2023-09-09T03:20:14.872Z,49.36
2023-09-09T03:21:47.036Z,49.26
2023-09-09T03:23:18.706Z,49.46
2023-09-09T03:24:50.297Z,49.45
2023-09-09T03:26:23.841Z,49.47
2023-09-09T03:27:55.411Z,49.30
2023-09-09T03:29:27.138Z,49.47
2023-09-09T03:30:59.554Z,49.50
2023-09-09T03:32:31.509Z,49.51
2023-09-09T03:34:03.166Z,49.46
2023-09-09T03:35:35.080Z,49.66
2023-09-09T03:37:06.743Z,49.69
2023-09-09T03:38:38.340Z,49.62
2023-09-09T03:40:10.405Z,49.77
2023-09-09T03:41:42.019Z,49.84
2023-09-09T03:43:13.694Z,49.90
2023-09-09T03:44:45.388Z,50.11
2023-09-09T03:46:17.066Z,49.94
2023-09-09T03:47:48.701Z,49.99
2023-09-09T03:49:20.899Z,50.10
2023-09-09T03:50:52.530Z,50.13
2023-09-09T03:52:24.053Z,50.11
2023-09-09T03:53:55.941Z,50.36
2023-09-09T03:55:27.604Z,50.50
2023-09-09T03:56:59.202Z,50.18
2023-09-09T03:58:30.919Z,50.16
2023-09-09T04:00:02.552Z,50.31
2023-09-09T04:01:34.229Z,50.50
2023-09-09T04:03:06.029Z,50.40
2023-09-09T04:04:37.861Z,50.42
2023-09-09T04:06:10.669Z,50.49
2023-09-09T04:07:45.488Z,50.61
2023-09-09T04:09:23.999Z,50.50
2023-09-09T04:10:56.316Z,50.16
2023-09-09T04:12:27.988Z,50.07
2023-09-09T04:14:00.982Z,50.13
2023-09-09T04:15:32.830Z,50.40
2023-09-09T04:17:04.961Z,50.51
2023-09-09T04:20:11.538Z,50.65
2023-09-09T04:21:43.108Z,50.70
2023-09-09T04:23:14.701Z,50.73
2023-09-09T04:24:46.514Z,50.61
2023-09-09T04:26:18.338Z,50.62
2023-09-09T04:27:50.504Z,50.91
2023-09-09T04:29:22.601Z,50.93
2023-09-09T04:30:54.332Z,51.01
2023-09-09T04:32:26.086Z,51.01
2023-09-09T04:33:57.692Z,51.16
2023-09-09T04:35:29.457Z,51.17
2023-09-09T04:37:01.133Z,51.07
2023-09-09T04:38:32.758Z,51.09
2023-09-09T04:40:06.562Z,51.10
2023-09-09T04:41:39.331Z,50.95
2023-09-09T04:43:11.161Z,51.14
2023-09-09T04:44:42.803Z,51.15
2023-09-09T04:46:14.503Z,51.31
2023-09-09T04:47:46.514Z,51.10
2023-09-09T04:49:18.663Z,51.13
2023-09-09T04:50:51.190Z,51.13
2023-09-09T04:52:22.930Z,51.05
2023-09-09T04:53:54.667Z,51.09
2023-09-09T04:55:26.621Z,51.38
2023-09-09T04:56:58.285Z,51.37
2023-09-09T04:58:30.280Z,51.31
2023-09-09T05:00:08.611Z,51.48
2023-09-09T05:01:40.710Z,51.13
2023-09-09T05:03:12.785Z,51.37
2023-09-09T05:04:44.610Z,51.37
2023-09-09T05:06:16.302Z,51.40
2023-09-09T05:07:48.177Z,51.10
2023-09-09T05:09:19.812Z,51.24
2023-09-09T05:10:51.371Z,51.08
2023-09-09T05:12:22.895Z,50.88
2023-09-09T05:13:54.574Z,50.90
2023-09-09T05:15:28.228Z,51.13
2023-09-09T05:17:00.133Z,51.01
2023-09-09T05:18:32.205Z,51.08
2023-09-09T05:20:04.341Z,51.13
2023-09-09T05:21:36.237Z,51.02
2023-09-09T05:23:08.211Z,50.79
2023-09-09T05:24:40.821Z,50.61
2023-09-09T05:26:12.804Z,50.38
2023-09-09T05:27:45.332Z,50.60
2023-09-09T05:29:17.161Z,50.64
2023-09-09T05:30:48.857Z,50.71
2023-09-09T05:32:20.531Z,50.75
2023-09-09T05:33:52.937Z,50.57
2023-09-09T05:35:24.703Z,50.78
2023-09-09T05:36:56.402Z,50.63
2023-09-09T05:38:28.303Z,50.58
2023-09-09T05:40:00.841Z,50.43
2023-09-09T05:41:35.094Z,50.66
2023-09-09T05:43:07.277Z,50.58
2023-09-09T05:44:38.937Z,50.70
2023-09-09T05:46:11.984Z,50.97
2023-09-09T05:47:46.383Z,50.92
2023-09-09T05:49:31.975Z,50.64
2023-09-09T05:51:08.251Z,50.36
2023-09-09T05:52:40.772Z,50.20
2023-09-09T05:54:12.661Z,49.96
2023-09-09T05:55:44.344Z,50.07
2023-09-09T05:57:16.258Z,49.93
2023-09-09T05:58:48.129Z,50.05
2023-09-09T06:00:21.372Z,49.84
2023-09-09T06:01:53.188Z,49.76
2023-09-09T06:03:25.023Z,49.52
2023-09-09T06:04:56.964Z,49.39
2023-09-09T06:06:28.748Z,49.81
2023-09-09T06:08:00.702Z,49.50
2023-09-09T06:09:32.360Z,49.43
2023-09-09T06:11:04.122Z,49.15
2023-09-09T06:12:35.803Z,49.21
2023-09-09T06:14:10.613Z,49.16
2023-09-09T06:15:42.209Z,48.98
2023-09-09T06:17:14.911Z,48.80
2023-09-09T06:18:46.628Z,48.85
2023-09-09T06:20:18.437Z,48.81
2023-09-09T06:21:50.150Z,48.86
2023-09-09T06:23:21.873Z,48.33
2023-09-09T06:24:53.506Z,48.26
2023-09-09T06:26:26.127Z,48.18
2023-09-09T06:27:57.914Z,48.10
2023-09-09T06:29:30.625Z,48.10
2023-09-09T06:31:02.422Z,48.12
2023-09-09T06:32:34.133Z,47.67
2023-09-09T06:34:05.910Z,47.61
2023-09-09T06:35:38.623Z,47.79
2023-09-09T06:37:11.157Z,47.52
2023-09-09T06:38:42.966Z,47.61
2023-09-09T06:40:14.880Z,47.72
2023-09-09T06:41:46.816Z,47.68
2023-09-09T06:43:20.614Z,47.79
2023-09-09T06:44:52.762Z,47.65
2023-09-09T06:46:25.018Z,48.00
2023-09-09T06:47:57.216Z,47.68
2023-09-09T06:49:29.389Z,47.85
2023-09-09T06:51:01.533Z,47.37
2023-09-09T06:52:33.238Z,46.89
2023-09-09T06:54:06.322Z,47.13
2023-09-09T06:55:38.517Z,46.93
2023-09-09T06:57:10.272Z,47.13
2023-09-09T06:58:42.286Z,46.52
2023-09-09T07:00:14.426Z,46.73
2023-09-09T07:01:46.611Z,46.35
2023-09-09T07:03:19.189Z,46.37
2023-09-09T07:04:51.563Z,46.12
2023-09-09T07:06:23.763Z,46.03
2023-09-09T07:07:55.805Z,45.55
2023-09-09T07:09:27.940Z,45.53
2023-09-09T07:10:59.681Z,45.47
2023-09-09T07:12:32.029Z,45.20
2023-09-09T07:14:04.222Z,44.87
2023-09-09T07:15:37.361Z,44.88
2023-09-09T07:17:09.614Z,44.87
2023-09-09T07:18:41.640Z,44.57
2023-09-09T07:20:14.243Z,44.52
2023-09-09T07:21:46.649Z,44.48
2023-09-09T07:23:18.940Z,44.36
2023-09-09T07:24:50.684Z,44.54
2023-09-09T07:26:22.990Z,44.26
2023-09-09T07:27:54.749Z,44.40
2023-09-09T07:29:26.604Z,44.12
2023-09-09T07:31:02.356Z,44.32
2023-09-09T07:32:34.425Z,44.33
2023-09-09T07:34:06.464Z,44.01
2023-09-09T07:35:38.409Z,43.85
2023-09-09T07:37:10.189Z,43.58
2023-09-09T07:38:42.514Z,43.14
2023-09-09T07:40:14.641Z,43.01
2023-09-09T07:41:46.466Z,42.94
2023-09-09T07:43:20.350Z,42.84
2023-09-09T07:44:52.739Z,42.80
2023-09-09T07:46:24.525Z,42.53
2023-09-09T07:47:56.761Z,42.57
2023-09-09T07:49:30.138Z,42.29
2023-09-09T07:51:01.837Z,42.39
2023-09-09T07:52:33.393Z,42.16
2023-09-09T07:54:06.282Z,42.29
2023-09-09T07:55:38.779Z,42.44
2023-09-09T07:57:10.444Z,42.48
2023-09-09T07:58:42.162Z,42.62
2023-09-09T08:00:15.458Z,42.06
2023-09-09T08:01:49.530Z,42.14
2023-09-09T08:03:21.355Z,42.08
2023-09-09T08:04:57.572Z,41.81
2023-09-09T08:06:36.043Z,41.73
2023-09-09T08:08:09.181Z,41.30
2023-09-09T08:09:46.747Z,41.12
2023-09-09T08:11:18.766Z,40.90
2023-09-09T08:12:50.723Z,40.94
2023-09-09T08:14:24.133Z,40.72
2023-09-09T08:15:56.441Z,40.55
2023-09-09T08:17:28.341Z,40.52
2023-09-09T08:19:01.875Z,40.31
2023-09-09T08:20:35.949Z,40.03
2023-09-09T08:22:07.793Z,39.98
2023-09-09T08:23:40.161Z,39.52
2023-09-09T08:25:13.571Z,39.39
2023-09-09T08:26:45.196Z,39.31
2023-09-09T08:28:20.317Z,39.43
2023-09-09T08:29:53.749Z,38.97
2023-09-09T08:31:27.731Z,38.81
2023-09-09T08:32:59.892Z,38.63
2023-09-09T08:34:33.134Z,38.57
2023-09-09T08:36:06.336Z,37.95
2023-09-09T08:37:38.007Z,37.41
2023-09-09T08:39:17.418Z,37.24
2023-09-09T08:41:09.601Z,37.44
2023-09-09T08:42:42.069Z,37.10
2023-09-09T08:44:33.513Z,37.01
2023-09-09T08:46:18.673Z,37.16
2023-09-09T08:47:52.441Z,36.40
2023-09-09T08:49:24.244Z,36.22
2023-09-09T08:50:57.283Z,35.68
2023-09-09T08:52:29.375Z,35.56
2023-09-09T08:54:01.056Z,35.34
2023-09-09T08:55:34.080Z,34.85
2023-09-09T08:57:06.614Z,34.70
2023-09-09T08:58:38.278Z,34.16
2023-09-09T09:00:10.370Z,33.57
2023-09-09T09:01:42.376Z,33.52
2023-09-09T09:03:14.237Z,33.02
2023-09-09T09:04:48.818Z,33.19
2023-09-09T09:06:23.378Z,32.85
2023-09-09T09:07:58.524Z,32.53
2023-09-09T09:09:31.262Z,31.78
2023-09-09T09:11:05.607Z,31.69
2023-09-09T09:12:37.718Z,31.33
2023-09-09T09:14:09.743Z,31.28
2023-09-09T09:15:42.255Z,31.15
2023-09-09T09:17:15.753Z,31.14
2023-09-09T09:18:47.755Z,30.86
2023-09-09T09:20:28.960Z,30.75
2023-09-09T09:22:01.012Z,30.52
2023-09-09T09:23:34.061Z,30.39
2023-09-09T09:25:10.472Z,30.44
2023-09-09T09:26:42.667Z,30.17
2023-09-09T09:28:16.188Z,29.47
2023-09-09T09:29:50.154Z,29.64
2023-09-09T09:31:26.967Z,29.50
2023-09-09T09:32:58.762Z,29.41
2023-09-09T09:34:34.781Z,28.90
2023-09-09T09:36:06.425Z,28.69
2023-09-09T09:37:38.388Z,29.14
2023-09-09T09:39:12.053Z,28.50
2023-09-09T09:40:44.202Z,28.73
2023-09-09T09:42:16.545Z,28.28
2023-09-09T09:43:51.278Z,28.28
2023-09-09T09:45:23.706Z,27.74
2023-09-09T09:47:04.762Z,28.25
2023-09-09T09:48:36.717Z,27.80
2023-09-09T09:50:08.888Z,28.17
2023-09-09T09:51:46.553Z,27.53
2023-09-09T09:53:18.303Z,27.41
2023-09-09T09:54:54.141Z,27.35
2023-09-09T09:56:25.720Z,27.66
2023-09-09T09:57:58.048Z,27.61
2023-09-09T09:59:33.593Z,27.11
2023-09-09T10:01:07.405Z,27.23
2023-09-09T10:02:39.267Z,27.15
2023-09-09T10:04:11.105Z,26.84
2023-09-09T10:05:48.462Z,26.64
2023-09-09T10:07:20.860Z,26.46
2023-09-09T10:09:05.274Z,26.78
2023-09-09T10:10:39.337Z,26.32
2023-09-09T10:12:29.915Z,26.21
2023-09-09T10:14:13.735Z,26.13
2023-09-09T10:15:46.807Z,26.24
2023-09-09T10:19:19.054Z,25.73
2023-09-09T10:20:53.088Z,25.76
2023-09-09T10:22:24.726Z,25.89
2023-09-09T10:23:57.684Z,25.70
2023-09-09T10:25:30.479Z,25.41
2023-09-09T10:27:25.045Z,25.55
2023-09-09T10:28:59.942Z,25.32
2023-09-09T10:30:31.557Z,25.24
2023-09-09T10:32:04.264Z,25.38
2023-09-09T10:33:36.438Z,25.23
2023-09-09T10:35:11.006Z,25.44
2023-09-09T10:36:51.505Z,25.07
2023-09-09T10:38:34.088Z,25.36
2023-09-09T10:40:07.894Z,24.96
2023-09-09T10:41:39.992Z,24.83
2023-09-09T10:43:14.571Z,24.73
2023-09-09T10:44:52.066Z,24.83
2023-09-09T10:46:34.307Z,24.67
2023-09-09T10:48:08.440Z,24.66
2023-09-09T10:49:40.646Z,24.56
2023-09-09T10:51:14.176Z,24.42
2023-09-09T10:52:46.027Z,24.48
2023-09-09T10:54:22.039Z,24.40
2023-09-09T10:55:56.864Z,24.54
2023-09-09T10:57:33.866Z,24.15
2023-09-09T10:59:16.831Z,24.01
2023-09-09T11:00:55.879Z,24.05
2023-09-09T11:02:44.243Z,23.86
2023-09-09T11:04:31.209Z,23.96
2023-09-09T11:06:06.522Z,23.77
2023-09-09T11:07:48.508Z,23.75
2023-09-09T11:09:20.620Z,23.74
2023-09-09T11:11:05.079Z,23.58
2023-09-09T11:12:36.770Z,23.59
2023-09-09T11:14:11.085Z,23.57
2023-09-09T11:15:52.506Z,23.62
2023-09-09T11:17:38.982Z,23.66
2023-09-09T11:19:13.788Z,23.17
2023-09-09T11:20:46.377Z,23.18
2023-09-09T11:22:18.218Z,23.11
2023-09-09T11:23:52.535Z,23.11
2023-09-09T11:27:20.341Z,22.97
2023-09-09T11:28:53.998Z,22.92
2023-09-09T11:30:29.848Z,22.85
2023-09-09T11:32:04.777Z,22.86
2023-09-09T11:33:38.147Z,22.74
2023-09-09T11:35:15.708Z,22.86
2023-09-09T11:36:48.948Z,22.75
2023-09-09T11:38:25.238Z,22.71
2023-09-09T11:39:57.118Z,22.79
2023-09-09T11:41:32.238Z,22.76
2023-09-09T11:43:08.837Z,22.66
2023-09-09T11:44:45.397Z,22.85
2023-09-09T11:46:19.095Z,22.85
2023-09-09T11:47:51.892Z,22.69
2023-09-09T11:49:24.115Z,22.65
2023-09-09T11:51:03.038Z,22.73
2023-09-09T11:52:36.440Z,22.37
2023-09-09T11:54:11.203Z,22.48
2023-09-09T11:55:45.169Z,22.33
2023-09-09T11:57:18.066Z,22.20
2023-09-09T11:58:52.310Z,22.20
2023-09-09T12:00:26.142Z,22.31
2023-09-09T12:01:58.566Z,22.29
2023-09-09T12:03:35.138Z,22.11
2023-09-09T12:05:08.436Z,22.16
2023-09-09T12:06:40.620Z,22.09
2023-09-09T12:08:19.005Z,22.11
2023-09-09T12:09:51.029Z,21.77
2023-09-09T12:11:25.360Z,21.89
2023-09-09T12:12:59.891Z,21.84
2023-09-09T12:14:31.534Z,21.88
2023-09-09T12:16:07.186Z,21.71
2023-09-09T12:17:45.296Z,21.55
2023-09-09T12:19:20.073Z,21.62
2023-09-09T12:21:01.991Z,21.59
2023-09-09T12:22:42.577Z,21.62
2023-09-09T12:24:16.571Z,21.53
2023-09-09T12:25:56.085Z,21.48
2023-09-09T12:27:43.836Z,21.51
2023-09-09T12:29:19.967Z,21.36
2023-09-09T12:30:53.010Z,21.37
2023-09-09T12:32:25.321Z,21.48
2023-09-09T12:33:57.602Z,21.26
2023-09-09T12:35:34.192Z,21.35
2023-09-09T12:37:05.910Z,21.19
2023-09-09T12:38:38.327Z,21.32
2023-09-09T12:40:12.217Z,21.07
2023-09-09T12:41:58.092Z,21.00
2023-09-09T12:43:32.800Z,21.24
2023-09-09T12:45:10.266Z,21.20
2023-09-09T12:46:42.534Z,20.96
2023-09-09T12:48:14.628Z,21.09
2023-09-09T12:49:47.462Z,21.07
2023-09-09T12:51:19.844Z,20.94
2023-09-09T12:52:53.705Z,20.91
2023-09-09T12:54:25.374Z,20.88
2023-09-09T12:55:58.392Z,20.96
2023-09-09T12:57:30.219Z,20.79
2023-09-09T12:59:03.773Z,20.95
2023-09-09T13:00:36.685Z,20.84
2023-09-09T13:02:08.323Z,20.85
2023-09-09T13:03:48.514Z,20.58
2023-09-09T13:05:23.620Z,20.99
2023-09-09T13:06:58.429Z,20.80
2023-09-09T13:08:30.817Z,20.82
2023-09-09T13:10:02.737Z,20.77
2023-09-09T13:11:34.822Z,20.73
2023-09-09T13:13:09.840Z,20.72
2023-09-09T13:14:41.826Z,20.72
2023-09-09T13:16:13.869Z,20.70
2023-09-09T13:17:46.755Z,20.76
2023-09-09T13:19:18.663Z,20.79
2023-09-09T13:20:50.679Z,20.84
2023-09-09T13:22:22.423Z,20.72
2023-09-09T13:23:54.115Z,20.96
2023-09-09T13:25:26.851Z,20.70
2023-09-09T13:26:58.586Z,20.79
2023-09-09T13:28:31.695Z,20.76
2023-09-09T13:30:05.111Z,20.76
2023-09-09T13:31:36.942Z,20.75
2023-09-09T13:33:08.806Z,20.70
2023-09-09T13:34:40.534Z,20.67
2023-09-09T13:36:12.392Z,20.93
2023-09-09T13:37:44.156Z,20.69
2023-09-09T13:39:17.947Z,20.71
2023-09-09T13:40:54.255Z,20.87
2023-09-09T13:42:26.341Z,20.82
2023-09-09T13:43:58.108Z,20.72
2023-09-09T13:45:30.597Z,20.43
2023-09-09T13:47:04.932Z,20.44
2023-09-09T13:48:37.239Z,20.72
2023-09-09T13:50:10.295Z,20.75
2023-09-09T13:51:41.904Z,20.49
2023-09-09T13:53:18.547Z,20.88
2023-09-09T13:54:50.482Z,20.90
2023-09-09T13:56:25.340Z,20.71
2023-09-09T13:57:57.096Z,20.61
2023-09-09T13:59:30.812Z,20.79
2023-09-09T14:01:03.070Z,20.63
2023-09-09T14:02:37.673Z,20.71
2023-09-09T14:04:10.136Z,20.68
2023-09-09T14:05:45.100Z,20.72
2023-09-09T14:07:16.836Z,20.75
2023-09-09T14:08:50.797Z,20.75
2023-09-09T14:10:22.668Z,20.62
2023-09-09T14:11:58.266Z,20.63
2023-09-09T14:13:31.708Z,20.42
2023-09-09T14:15:04.016Z,20.76
2023-09-09T14:16:35.611Z,20.63
2023-09-09T14:18:07.972Z,20.77
2023-09-09T14:19:40.688Z,20.76
2023-09-09T14:21:12.427Z,20.77
2023-09-09T14:22:48.156Z,20.66
2023-09-09T14:24:20.615Z,20.58
2023-09-09T14:25:52.864Z,20.58
2023-09-09T14:27:24.913Z,20.67
2023-09-09T14:28:57.875Z,20.72
2023-09-09T14:30:29.579Z,20.64
2023-09-09T14:32:01.344Z,20.62
2023-09-09T14:33:33.509Z,20.68
2023-09-09T14:35:08.522Z,20.69
2023-09-09T14:36:40.338Z,20.74
2023-09-09T14:38:12.024Z,20.59
2023-09-09T14:39:43.779Z,20.82
2023-09-09T14:41:15.420Z,20.63
2023-09-09T14:42:47.732Z,20.62
2023-09-09T14:44:20.020Z,20.72
2023-09-09T14:45:51.836Z,20.88
2023-09-09T14:47:23.693Z,20.85
2023-09-09T14:49:02.708Z,20.97
2023-09-09T14:50:35.055Z,20.67
2023-09-09T14:52:07.799Z,20.74
2023-09-09T14:53:39.709Z,20.90
2023-09-09T14:55:12.293Z,21.00
2023-09-09T14:56:44.250Z,20.95
2023-09-09T14:58:16.496Z,21.11
2023-09-09T14:59:49.866Z,20.98
2023-09-09T15:01:22.303Z,21.05
2023-09-09T15:02:54.356Z,21.06
2023-09-09T15:04:26.877Z,21.28
2023-09-09T15:05:59.046Z,21.09
2023-09-09T15:07:31.180Z,20.97
2023-09-09T15:09:03.273Z,20.77
2023-09-09T15:10:35.330Z,21.06
2023-09-09T15:12:09.361Z,20.92
2023-09-09T15:13:41.742Z,21.29
2023-09-09T15:15:14.083Z,21.22
2023-09-09T15:16:49.576Z,20.82
2023-09-09T15:18:21.500Z,20.78
2023-09-09T15:19:54.739Z,20.73
2023-09-09T15:21:26.498Z,21.14
2023-09-09T15:22:58.498Z,21.27
2023-09-09T15:24:30.557Z,21.10
2023-09-09T15:26:07.375Z,21.01
2023-09-09T15:27:39.531Z,21.06
2023-09-09T15:29:11.665Z,21.24
2023-09-09T15:30:43.726Z,21.33
2023-09-09T15:32:15.388Z,20.88
2023-09-09T15:33:47.145Z,21.30
2023-09-09T15:35:18.775Z,21.36
2023-09-09T15:36:50.766Z,20.96
2023-09-09T15:38:22.652Z,20.96
2023-09-09T15:39:56.329Z,20.96
2023-09-09T15:41:28.117Z,21.20
2023-09-09T15:43:00.007Z,20.89
2023-09-09T15:44:31.755Z,20.92
2023-09-09T15:46:03.918Z,21.14
2023-09-09T15:47:36.155Z,20.65
2023-09-09T15:49:08.088Z,20.98
2023-09-09T15:50:40.609Z,20.40
2023-09-09T15:52:12.963Z,20.69
2023-09-09T15:53:45.228Z,20.50
2023-09-09T15:55:17.444Z,20.73
2023-09-09T15:56:49.015Z,20.69
2023-09-09T15:58:21.856Z,20.58
2023-09-09T15:59:54.032Z,20.78
2023-09-09T16:01:25.984Z,20.53
2023-09-09T16:02:58.033Z,20.78
2023-09-09T16:04:29.966Z,20.59
2023-09-09T16:06:07.114Z,20.56
2023-09-09T16:07:40.056Z,20.40
2023-09-09T16:09:14.365Z,20.82
2023-09-09T16:10:46.916Z,20.53
2023-09-09T16:12:18.822Z,20.77
2023-09-09T16:13:50.871Z,20.36
2023-09-09T16:15:22.661Z,20.53
2023-09-09T16:16:54.808Z,20.47
2023-09-09T16:18:26.578Z,20.52
2023-09-09T16:19:58.427Z,20.54
2023-09-09T16:21:30.160Z,21.12
2023-09-09T16:23:02.625Z,21.12
2023-09-09T16:24:35.013Z,20.71
2023-09-09T16:26:27.693Z,21.16
2023-09-09T16:27:59.387Z,21.14
2023-09-09T16:29:31.628Z,20.98
2023-09-09T16:31:06.499Z,21.39
2023-09-09T16:32:41.019Z,21.47
2023-09-09T16:34:13.028Z,21.64
2023-09-09T16:35:45.279Z,21.64
2023-09-09T16:37:17.382Z,21.75
2023-09-09T16:38:50.931Z,21.72
2023-09-09T16:40:22.855Z,21.47
2023-09-09T16:41:55.099Z,21.61
2023-09-09T16:43:27.878Z,21.58
2023-09-09T16:45:00.002Z,22.02
2023-09-09T16:46:31.709Z,21.83
2023-09-09T16:48:03.917Z,22.23
2023-09-09T16:49:35.997Z,22.18
2023-09-09T16:51:07.638Z,21.94
2023-09-09T16:52:39.982Z,21.92
2023-09-09T16:54:11.976Z,21.96
2023-09-09T16:55:44.783Z,22.10
2023-09-09T16:57:17.759Z,22.17
2023-09-09T16:58:49.750Z,21.96
2023-09-09T17:00:21.659Z,22.14
2023-09-09T17:01:53.441Z,22.13
2023-09-09T17:03:25.312Z,22.22
2023-09-09T17:04:57.567Z,22.35
2023-09-09T17:06:29.689Z,22.22
2023-09-09T17:08:02.606Z,22.37
2023-09-09T17:09:34.375Z,22.38
2023-09-09T17:11:06.341Z,22.74
2023-09-09T17:12:38.544Z,22.70
2023-09-09T17:14:10.207Z,22.66
2023-09-09T17:15:42.760Z,22.53
2023-09-09T17:17:14.803Z,22.42
2023-09-09T17:18:46.512Z,22.94
2023-09-09T17:20:19.262Z,22.97
2023-09-09T17:21:51.321Z,22.82
2023-09-09T17:23:23.982Z,22.93
2023-09-09T17:24:56.033Z,23.22
2023-09-09T17:28:00.087Z,23.20
2023-09-09T17:29:31.692Z,22.96
2023-09-09T17:31:05.006Z,23.05
2023-09-09T17:32:36.868Z,23.15
2023-09-09T17:34:09.034Z,23.53
2023-09-09T17:35:42.160Z,23.34
2023-09-09T17:37:14.524Z,23.72
2023-09-09T17:38:50.612Z,23.71
2023-09-09T17:40:22.818Z,23.71
2023-09-09T17:41:55.005Z,23.28
2023-09-09T17:43:27.041Z,23.43
2023-09-09T17:44:58.646Z,23.32
2023-09-09T17:46:30.980Z,23.82
2023-09-09T17:48:03.129Z,23.66
2023-09-09T17:49:34.991Z,23.69
2023-09-09T17:51:07.481Z,23.79
2023-09-09T17:52:41.231Z,23.56
2023-09-09T17:54:13.217Z,23.83
2023-09-09T17:55:45.231Z,23.84
2023-09-09T17:57:20.633Z,23.77
2023-09-09T17:58:53.141Z,24.06
2023-09-09T18:00:25.687Z,24.03
2023-09-09T18:01:58.008Z,24.10
2023-09-09T18:03:29.787Z,23.86
2023-09-09T18:05:01.748Z,24.36
2023-09-09T18:06:33.766Z,24.03
2023-09-09T18:08:06.140Z,23.91
2023-09-09T18:09:37.979Z,24.35
2023-09-09T18:11:11.152Z,24.12
2023-09-09T18:12:43.698Z,23.96
2023-09-09T18:14:17.526Z,24.55
2023-09-09T18:15:50.028Z,24.05
2023-09-09T18:17:22.117Z,24.33
2023-09-09T18:18:54.450Z,24.20
2023-09-09T18:20:30.084Z,24.40
2023-09-09T18:22:02.547Z,24.86
2023-09-09T18:23:38.350Z,24.59
2023-09-09T18:25:11.007Z,24.77
2023-09-09T18:26:43.288Z,24.89
2023-09-09T18:28:15.322Z,24.81
2023-09-09T18:29:47.286Z,24.68
2023-09-09T18:31:20.770Z,24.65
2023-09-09T18:32:53.076Z,24.65
2023-09-09T18:34:24.880Z,24.91
2023-09-09T18:35:57.549Z,25.09
2023-09-09T18:37:31.395Z,25.10
2023-09-09T18:39:05.747Z,25.10
2023-09-09T18:40:38.821Z,25.02
2023-09-09T18:42:10.727Z,25.11
2023-09-09T18:43:42.655Z,24.98
2023-09-09T18:45:14.554Z,25.28
2023-09-09T18:46:46.644Z,25.38
2023-09-09T18:48:19.263Z,25.39
2023-09-09T18:49:51.416Z,25.56
2023-09-09T18:51:23.556Z,25.76
2023-09-09T18:52:56.192Z,25.68
2023-09-09T18:54:29.378Z,25.59
2023-09-09T18:56:01.683Z,25.43
2023-09-09T18:57:33.887Z,25.32
2023-09-09T18:59:06.563Z,25.34
2023-09-09T19:00:38.933Z,25.31
2023-09-09T19:02:11.048Z,25.41
2023-09-09T19:03:43.613Z,25.29
2023-09-09T19:05:18.965Z,25.54
2023-09-09T19:06:50.868Z,25.36
2023-09-09T19:08:23.391Z,25.54
2023-09-09T19:09:56.448Z,25.58
2023-09-09T19:11:28.590Z,25.58
2023-09-09T19:13:00.425Z,25.60
2023-09-09T19:14:34.233Z,25.49
2023-09-09T19:16:06.273Z,25.62
2023-09-09T19:17:38.910Z,25.59
2023-09-09T19:19:10.871Z,25.65
2023-09-09T19:20:42.757Z,25.76
2023-09-09T19:22:14.866Z,25.68
2023-09-09T19:23:46.998Z,25.70
2023-09-09T19:25:19.183Z,25.71
2023-09-09T19:26:52.176Z,25.71
2023-09-09T19:28:26.454Z,25.71
2023-09-09T19:29:59.119Z,25.61
2023-09-09T19:31:31.985Z,25.57
2023-09-09T19:33:05.028Z,25.71
2023-09-09T19:34:37.955Z,25.51
2023-09-09T19:36:10.231Z,25.51
2023-09-09T19:37:42.852Z,25.45
2023-09-09T19:39:18.056Z,25.28
2023-09-09T19:40:50.675Z,25.42
2023-09-09T19:42:22.988Z,25.42
2023-09-09T19:43:55.382Z,25.37
2023-09-09T19:45:27.830Z,25.56
2023-09-09T19:47:00.289Z,25.52
2023-09-09T19:48:32.869Z,25.69
2023-09-09T19:50:05.491Z,25.64
2023-09-09T19:51:38.227Z,25.72
2023-09-09T19:53:13.232Z,25.78
2023-09-09T19:54:46.394Z,25.79
2023-09-09T19:56:18.545Z,25.78
2023-09-09T19:57:50.998Z,25.81
2023-09-09T19:59:23.378Z,25.87
2023-09-09T20:00:56.009Z,25.72
2023-09-09T20:02:28.573Z,25.84
2023-09-09T20:04:00.672Z,25.91
2023-09-09T20:05:32.765Z,25.71